Venture — WDC2604 — position and weather

sailwx.info

Track history (hours):
 
Tides and Currents Weather Stations Pressure Air Temp Water Temp Dewpoint Dewpoint Depression Visibility Wind Speed Wind Dir Waves Ship Positions

Venture

Owner: Kirby Inland Marine, LP, Houston, TX. More information available from US FCC via Universal Licensing System and Coast Guard Vessel Documentation Center.

Last reported at 2018-Feb-19 08:00 UTC. Time now 2018-Feb-19 08:09 UTC.
Position N 29°44' W 095°07'.

Length 25 m.

Type: Towing. MMSI: 365946914.

Date/timePositionNaut miles runAvg speedWind from/ knotsBaromVisibWave heightAir tempDewpointWater temp
2018-Feb-19 08:00N 29°44' W 095°07'3 5.5
2018-Feb-19 07:30N 29°45' W 095°10'  
2018-Feb-16 18:47N 29°46' W 095°04'0 0.0
2018-Feb-16 18:30N 29°46' W 095°04'0 0.0
2018-Feb-16 18:00N 29°46' W 095°04'0 0.0
2018-Feb-16 17:30N 29°46' W 095°04'0 0.0
2018-Feb-16 17:00N 29°46' W 095°04'0 0.0
2018-Feb-16 16:30N 29°46' W 095°04'0 0.0
2018-Feb-16 16:00N 29°46' W 095°04'0 0.0
2018-Feb-16 15:29N 29°46' W 095°04'0 0.0
2018-Feb-16 15:00N 29°46' W 095°04'0 0.0
2018-Feb-16 14:30N 29°46' W 095°04'0 0.0
2018-Feb-16 13:59N 29°46' W 095°04'0 0.0
2018-Feb-16 13:30N 29°46' W 095°04'0 0.0
2018-Feb-16 10:43N 29°46' W 095°04'0 0.0
2018-Feb-16 05:28N 29°46' W 095°04'0 0.0
2018-Feb-16 04:53N 29°46' W 095°04'0 0.0
2018-Feb-16 04:30N 29°46' W 095°04'0 0.0
2018-Feb-16 04:00N 29°46' W 095°04'0 0.0
2018-Feb-16 03:15N 29°46' W 095°04'0 0.0
2018-Feb-16 02:53N 29°46' W 095°04'0 0.0
2018-Feb-16 02:27N 29°46' W 095°04'0 0.0
2018-Feb-16 02:00N 29°46' W 095°04'0 0.0
2018-Feb-16 01:13N 29°46' W 095°04'0 0.0
2018-Feb-15 19:36N 29°46' W 095°04'0 0.0
2018-Feb-15 09:06N 29°46' W 095°04'0 0.0
2018-Feb-15 08:39N 29°46' W 095°04'0 0.0
2018-Feb-15 08:19N 29°46' W 095°04'0 0.0
2018-Feb-15 07:58N 29°46' W 095°04'0 0.0
2018-Feb-15 07:29N 29°46' W 095°04'0 0.0
2018-Feb-15 06:53N 29°46' W 095°04'0 0.0
2018-Feb-15 06:30N 29°46' W 095°04'0 0.0
2018-Feb-15 06:00N 29°46' W 095°04'0 0.0
2018-Feb-15 05:27N 29°46' W 095°04'0 0.0
2018-Feb-15 04:59N 29°46' W 095°04'0 0.0
2018-Feb-15 04:20N 29°46' W 095°04'0 0.0
2018-Feb-15 04:00N 29°46' W 095°04'0 0.0
2018-Feb-15 03:30N 29°46' W 095°04'0 0.0
2018-Feb-14 17:23N 29°46' W 095°04'  
2018-Feb-11 17:41N 29°36' W 094°23'1 1.2
2018-Feb-11 17:13N 29°36' W 094°23'0 0.7
2018-Feb-11 16:59N 29°36' W 094°23'2 1.6
2018-Feb-11 15:31N 29°37' W 094°20'0 3.2
2018-Feb-11 15:30N 29°37' W 094°20'2 4.3
2018-Feb-11 14:57N 29°38' W 094°18'3 5.3
2018-Feb-11 14:25N 29°39' W 094°15'2 3.6
2018-Feb-11 14:00N 29°40' W 094°14'0 0.0
2018-Feb-11 13:30N 29°40' W 094°14'0 0.0
2018-Feb-11 13:00N 29°40' W 094°14'0 0.0
2018-Feb-11 12:30N 29°40' W 094°14'0 0.0
2018-Feb-11 12:00N 29°40' W 094°14'0 0.0
2018-Feb-11 11:31N 29°40' W 094°14'0 0.0
2018-Feb-11 11:01N 29°40' W 094°14'0 0.0
2018-Feb-11 10:31N 29°40' W 094°14'0 0.0
2018-Feb-11 10:01N 29°40' W 094°14'0 0.1
2018-Feb-11 09:30N 29°40' W 094°13'1 1.7
2018-Feb-11 09:00N 29°41' W 094°13'0 0.0
2018-Feb-11 08:30N 29°41' W 094°13'1 1.5
2018-Feb-11 08:00N 29°41' W 094°12'2 3.5
2018-Feb-11 07:23N 29°41' W 094°09'2 5.5
2018-Feb-11 07:00N 29°43' W 094°08'2 4.8
2018-Feb-11 06:31N 29°44' W 094°05'0 0.7
2018-Feb-11 06:01N 29°44' W 094°05'2 4.9
2018-Feb-11 05:30N 29°46' W 094°03'3 5.3
2018-Feb-11 05:01N 29°48' W 094°01'3 5.0
2018-Feb-11 04:30N 29°49' W 093°58'3 6.4
2018-Feb-11 04:01N 29°52' W 093°56'4 7.9
2018-Feb-11 03:30N 29°55' W 093°53'4 7.5
2018-Feb-11 03:00N 29°58' W 093°51'4 7.4
2018-Feb-11 02:29N 29°59' W 093°56'3 5.8
2018-Feb-11 02:01N 30°01' W 093°59'3 6.1
2018-Feb-11 01:31N 30°02' W 094°02'0 0.8
2018-Feb-11 01:00N 30°02' W 094°02'0 0.0
2018-Feb-11 00:30N 30°02' W 094°02'0 0.0
2018-Feb-11 00:00N 30°02' W 094°02'0 0.0
2018-Feb-10 23:30N 30°02' W 094°02'0 0.0
2018-Feb-10 23:01N 30°02' W 094°02'0 0.0
2018-Feb-10 22:30N 30°02' W 094°02'0 0.0
2018-Feb-10 21:59N 30°02' W 094°02'0 0.0
2018-Feb-10 21:30N 30°02' W 094°02'0 0.0
2018-Feb-10 21:00N 30°02' W 094°02'0 0.0
2018-Feb-10 20:30N 30°02' W 094°02'0 0.0
2018-Feb-10 19:59N 30°02' W 094°02'0 0.1
2018-Feb-10 19:30N 30°02' W 094°02'0 0.0
2018-Feb-10 19:01N 30°02' W 094°02'0 0.0
2018-Feb-10 18:31N 30°02' W 094°02'0 0.0
2018-Feb-10 18:01N 30°02' W 094°02'0 0.0
2018-Feb-10 17:31N 30°02' W 094°02'0 0.0
2018-Feb-10 17:01N 30°02' W 094°02'0 0.0
2018-Feb-10 16:30N 30°02' W 094°02'0 0.0
2018-Feb-10 16:01N 30°02' W 094°02'0 0.0
2018-Feb-10 15:31N 30°02' W 094°02'0 0.0
2018-Feb-10 15:01N 30°02' W 094°02'0 0.0
2018-Feb-10 14:30N 30°02' W 094°02'0 0.0
2018-Feb-10 14:01N 30°02' W 094°02'0 0.0
2018-Feb-10 13:31N 30°02' W 094°02'0 0.0
2018-Feb-10 13:00N 30°02' W 094°02'0 0.0
2018-Feb-10 12:30N 30°02' W 094°02'0 0.0
2018-Feb-10 12:01N 30°02' W 094°02'0 0.0
2018-Feb-10 11:31N 30°02' W 094°02'0 0.0
2018-Feb-10 11:00N 30°02' W 094°02'0 0.0
2018-Feb-10 10:30N 30°02' W 094°02'0 0.0
2018-Feb-10 10:01N 30°02' W 094°02'0 0.0
2018-Feb-10 09:30N 30°02' W 094°02'0 0.0
2018-Feb-10 09:00N 30°02' W 094°02'0 0.0
2018-Feb-10 08:30N 30°02' W 094°02'0 0.0
2018-Feb-10 08:00N 30°02' W 094°02'0 0.0
2018-Feb-10 07:30N 30°02' W 094°02'0 0.0
2018-Feb-10 07:00N 30°02' W 094°02'0 0.0
2018-Feb-10 06:30N 30°02' W 094°02'0 0.0
2018-Feb-10 06:00N 30°02' W 094°02'0 0.0
2018-Feb-10 05:30N 30°02' W 094°02'0 0.0
2018-Feb-10 05:00N 30°02' W 094°02'0 0.0
2018-Feb-10 04:30N 30°02' W 094°02'0 0.0
2018-Feb-10 04:00N 30°02' W 094°02'0 0.0
2018-Feb-10 03:30N 30°02' W 094°02'0 0.0
2018-Feb-10 03:00N 30°02' W 094°02'0 0.0
2018-Feb-10 02:30N 30°02' W 094°02'0 0.0
2018-Feb-10 02:00N 30°02' W 094°02'0 0.0
2018-Feb-10 01:30N 30°02' W 094°02'0 0.0
2018-Feb-10 01:00N 30°02' W 094°02'0 0.0
2018-Feb-10 00:29N 30°02' W 094°02'0 0.0
2018-Feb-10 00:00N 30°02' W 094°02'0 0.0
2018-Feb-09 23:31N 30°02' W 094°02'0 0.8
2018-Feb-09 23:00N 30°01' W 094°02'1 3.0
2018-Feb-09 22:46N 30°01' W 094°01'3 2.7
2018-Feb-09 21:31N 30°00' W 093°57'2 0.4
2018-Feb-09 16:31N 29°60' W 093°55'0 0.0
2018-Feb-09 16:01N 29°60' W 093°55'0 0.1
2018-Feb-09 13:01N 29°60' W 093°55'  
Track history (hours):
 
Tides and Currents Weather Stations Pressure Air Temp Water Temp Dewpoint Dewpoint Depression Visibility Wind Speed Wind Dir Waves Ship Positions

Venture

Owner: Kirby Inland Marine, LP, Houston, TX. More information available from US FCC via Universal Licensing System and Coast Guard Vessel Documentation Center.

Last reported at 2018-Feb-19 08:00 UTC. Time now 2018-Feb-19 08:09 UTC.
Position N 29°44' W 095°07'.

Length 25 m.

Type: Towing. MMSI: 365946914.

Date/timePositionNaut miles runAvg speedWind from/ knotsBaromVisibWave heightAir tempDewpointWater temp
2018-Feb-19 08:00N 29°44' W 095°07'3 5.5
2018-Feb-19 07:30N 29°45' W 095°10'  
2018-Feb-16 18:47N 29°46' W 095°04'0 0.0
2018-Feb-16 18:30N 29°46' W 095°04'0 0.0
2018-Feb-16 18:00N 29°46' W 095°04'0 0.0
2018-Feb-16 17:30N 29°46' W 095°04'0 0.0
2018-Feb-16 17:00N 29°46' W 095°04'0 0.0
2018-Feb-16 16:30N 29°46' W 095°04'0 0.0
2018-Feb-16 16:00N 29°46' W 095°04'0 0.0
2018-Feb-16 15:29N 29°46' W 095°04'0 0.0
2018-Feb-16 15:00N 29°46' W 095°04'0 0.0
2018-Feb-16 14:30N 29°46' W 095°04'0 0.0
2018-Feb-16 13:59N 29°46' W 095°04'0 0.0
2018-Feb-16 13:30N 29°46' W 095°04'0 0.0
2018-Feb-16 10:43N 29°46' W 095°04'0 0.0
2018-Feb-16 05:28N 29°46' W 095°04'0 0.0
2018-Feb-16 04:53N 29°46' W 095°04'0 0.0
2018-Feb-16 04:30N 29°46' W 095°04'0 0.0
2018-Feb-16 04:00N 29°46' W 095°04'0 0.0
2018-Feb-16 03:15N 29°46' W 095°04'0 0.0
2018-Feb-16 02:53N 29°46' W 095°04'0 0.0
2018-Feb-16 02:27N 29°46' W 095°04'0 0.0
2018-Feb-16 02:00N 29°46' W 095°04'0 0.0
2018-Feb-16 01:13N 29°46' W 095°04'0 0.0
2018-Feb-15 19:36N 29°46' W 095°04'0 0.0
2018-Feb-15 09:06N 29°46' W 095°04'0 0.0
2018-Feb-15 08:39N 29°46' W 095°04'0 0.0
2018-Feb-15 08:19N 29°46' W 095°04'0 0.0
2018-Feb-15 07:58N 29°46' W 095°04'0 0.0
2018-Feb-15 07:29N 29°46' W 095°04'0 0.0
2018-Feb-15 06:53N 29°46' W 095°04'0 0.0
2018-Feb-15 06:30N 29°46' W 095°04'0 0.0
2018-Feb-15 06:00N 29°46' W 095°04'0 0.0
2018-Feb-15 05:27N 29°46' W 095°04'0 0.0
2018-Feb-15 04:59N 29°46' W 095°04'0 0.0
2018-Feb-15 04:20N 29°46' W 095°04'0 0.0
2018-Feb-15 04:00N 29°46' W 095°04'0 0.0
2018-Feb-15 03:30N 29°46' W 095°04'0 0.0
2018-Feb-14 17:23N 29°46' W 095°04'  
2018-Feb-11 17:41N 29°36' W 094°23'1 1.2
2018-Feb-11 17:13N 29°36' W 094°23'0 0.7
2018-Feb-11 16:59N 29°36' W 094°23'2 1.6
2018-Feb-11 15:31N 29°37' W 094°20'0 3.2
2018-Feb-11 15:30N 29°37' W 094°20'2 4.3
2018-Feb-11 14:57N 29°38' W 094°18'3 5.3
2018-Feb-11 14:25N 29°39' W 094°15'2 3.6
2018-Feb-11 14:00N 29°40' W 094°14'0 0.0
2018-Feb-11 13:30N 29°40' W 094°14'0 0.0
2018-Feb-11 13:00N 29°40' W 094°14'0 0.0
2018-Feb-11 12:30N 29°40' W 094°14'0 0.0
2018-Feb-11 12:00N 29°40' W 094°14'0 0.0
2018-Feb-11 11:31N 29°40' W 094°14'0 0.0
2018-Feb-11 11:01N 29°40' W 094°14'0 0.0
2018-Feb-11 10:31N 29°40' W 094°14'0 0.0
2018-Feb-11 10:01N 29°40' W 094°14'0 0.1
2018-Feb-11 09:30N 29°40' W 094°13'1 1.7
2018-Feb-11 09:00N 29°41' W 094°13'0 0.0
2018-Feb-11 08:30N 29°41' W 094°13'1 1.5
2018-Feb-11 08:00N 29°41' W 094°12'2 3.5
2018-Feb-11 07:23N 29°41' W 094°09'2 5.5
2018-Feb-11 07:00N 29°43' W 094°08'2 4.8
2018-Feb-11 06:31N 29°44' W 094°05'0 0.7
2018-Feb-11 06:01N 29°44' W 094°05'2 4.9
2018-Feb-11 05:30N 29°46' W 094°03'3 5.3
2018-Feb-11 05:01N 29°48' W 094°01'3 5.0
2018-Feb-11 04:30N 29°49' W 093°58'3 6.4
2018-Feb-11 04:01N 29°52' W 093°56'4 7.9
2018-Feb-11 03:30N 29°55' W 093°53'4 7.5
2018-Feb-11 03:00N 29°58' W 093°51'4 7.4
2018-Feb-11 02:29N 29°59' W 093°56'3 5.8
2018-Feb-11 02:01N 30°01' W 093°59'3 6.1
2018-Feb-11 01:31N 30°02' W 094°02'0 0.8
2018-Feb-11 01:00N 30°02' W 094°02'0 0.0
2018-Feb-11 00:30N 30°02' W 094°02'0 0.0
2018-Feb-11 00:00N 30°02' W 094°02'0 0.0
2018-Feb-10 23:30N 30°02' W 094°02'0 0.0
2018-Feb-10 23:01N 30°02' W 094°02'0 0.0
2018-Feb-10 22:30N 30°02' W 094°02'0 0.0
2018-Feb-10 21:59N 30°02' W 094°02'0 0.0
2018-Feb-10 21:30N 30°02' W 094°02'0 0.0
2018-Feb-10 21:00N 30°02' W 094°02'0 0.0
2018-Feb-10 20:30N 30°02' W 094°02'0 0.0
2018-Feb-10 19:59N 30°02' W 094°02'0 0.1
2018-Feb-10 19:30N 30°02' W 094°02'0 0.0
2018-Feb-10 19:01N 30°02' W 094°02'0 0.0
2018-Feb-10 18:31N 30°02' W 094°02'0 0.0
2018-Feb-10 18:01N 30°02' W 094°02'0 0.0
2018-Feb-10 17:31N 30°02' W 094°02'0 0.0
2018-Feb-10 17:01N 30°02' W 094°02'0 0.0
2018-Feb-10 16:30N 30°02' W 094°02'0 0.0
2018-Feb-10 16:01N 30°02' W 094°02'0 0.0
2018-Feb-10 15:31N 30°02' W 094°02'0 0.0
2018-Feb-10 15:01N 30°02' W 094°02'0 0.0
2018-Feb-10 14:30N 30°02' W 094°02'0 0.0
2018-Feb-10 14:01N 30°02' W 094°02'0 0.0
2018-Feb-10 13:31N 30°02' W 094°02'0 0.0
2018-Feb-10 13:00N 30°02' W 094°02'0 0.0
2018-Feb-10 12:30N 30°02' W 094°02'0 0.0
2018-Feb-10 12:01N 30°02' W 094°02'0 0.0
2018-Feb-10 11:31N 30°02' W 094°02'0 0.0
2018-Feb-10 11:00N 30°02' W 094°02'0 0.0
2018-Feb-10 10:30N 30°02' W 094°02'0 0.0
2018-Feb-10 10:01N 30°02' W 094°02'0 0.0
2018-Feb-10 09:30N 30°02' W 094°02'0 0.0
2018-Feb-10 09:00N 30°02' W 094°02'0 0.0
2018-Feb-10 08:30N 30°02' W 094°02'0 0.0
2018-Feb-10 08:00N 30°02' W 094°02'0 0.0
2018-Feb-10 07:30N 30°02' W 094°02'0 0.0
2018-Feb-10 07:00N 30°02' W 094°02'0 0.0
2018-Feb-10 06:30N 30°02' W 094°02'0 0.0
2018-Feb-10 06:00N 30°02' W 094°02'0 0.0
2018-Feb-10 05:30N 30°02' W 094°02'0 0.0
2018-Feb-10 05:00N 30°02' W 094°02'0 0.0
2018-Feb-10 04:30N 30°02' W 094°02'0 0.0
2018-Feb-10 04:00N 30°02' W 094°02'0 0.0
2018-Feb-10 03:30N 30°02' W 094°02'0 0.0
2018-Feb-10 03:00N 30°02' W 094°02'0 0.0
2018-Feb-10 02:30N 30°02' W 094°02'0 0.0
2018-Feb-10 02:00N 30°02' W 094°02'0 0.0
2018-Feb-10 01:30N 30°02' W 094°02'0 0.0
2018-Feb-10 01:00N 30°02' W 094°02'0 0.0
2018-Feb-10 00:29N 30°02' W 094°02'0 0.0
2018-Feb-10 00:00N 30°02' W 094°02'0 0.0
2018-Feb-09 23:31N 30°02' W 094°02'0 0.8
2018-Feb-09 23:00N 30°01' W 094°02'1 3.0
2018-Feb-09 22:46N 30°01' W 094°01'3 2.7
2018-Feb-09 21:31N 30°00' W 093°57'2 0.4
2018-Feb-09 16:31N 29°60' W 093°55'0 0.0
2018-Feb-09 16:01N 29°60' W 093°55'0 0.1
2018-Feb-09 13:01N 29°60' W 093°55'  

Dump ship's entire track history